Webcam Flughafen St.Gallen-Altenrhein

Live-Bilder und Zeitraffer LSZR / ACH.

 

Live aus Altenrhein
LIVE
LSZR 041150Z AUTO 28007KT CAVOK 12/02 Q1022
Zeitraffer heute
2020-04-04 00:14:46
LSZR 032150Z AUTO 31003KT 9999 OVC070 06/02 Q1020